sensor_id;sensor_type;location;lat;lon;timestamp;pressure;altitude;pressure_sealevel;temperature;humidity
25526;BME280;13424;48.424;11.258;2023-04-22T00:01:02;95094.06;;;12.57;71.62
25526;BME280;13424;48.424;11.258;2023-04-22T00:03:28;95098.34;;;12.68;71.45
25526;BME280;13424;48.424;11.258;2023-04-22T00:05:54;95103.97;;;12.67;71.55
25526;BME280;13424;48.424;11.258;2023-04-22T00:08:20;95098.09;;;12.65;71.05
25526;BME280;13424;48.424;11.258;2023-04-22T00:10:46;95104.41;;;12.28;72.43
25526;BME280;13424;48.424;11.258;2023-04-22T00:13:21;95098.00;;;12.34;72.32
25526;BME280;13424;48.424;11.258;2023-04-22T00:15:46;95099.66;;;12.50;71.80
25526;BME280;13424;48.424;11.258;2023-04-22T00:18:12;95099.69;;;12.61;71.72
25526;BME280;13424;48.424;11.258;2023-04-22T00:20:42;95097.00;;;12.50;72.30
25526;BME280;13424;48.424;11.258;2023-04-22T00:23:09;95101.78;;;12.53;72.05
25526;BME280;13424;48.424;11.258;2023-04-22T00:25:35;95090.59;;;12.67;71.84
25526;BME280;13424;48.424;11.258;2023-04-22T00:28:00;95088.22;;;12.80;71.76
25526;BME280;13424;48.424;11.258;2023-04-22T00:30:26;95086.09;;;12.82;71.29
25526;BME280;13424;48.424;11.258;2023-04-22T00:32:55;95083.66;;;12.76;71.07
25526;BME280;13424;48.424;11.258;2023-04-22T00:35:21;95086.25;;;12.35;72.96
25526;BME280;13424;48.424;11.258;2023-04-22T00:37:47;95083.66;;;12.76;71.04
25526;BME280;13424;48.424;11.258;2023-04-22T00:40:12;95086.31;;;12.66;71.25
25526;BME280;13424;48.424;11.258;2023-04-22T00:42:38;95087.34;;;12.49;72.00
25526;BME280;13424;48.424;11.258;2023-04-22T00:45:09;95086.34;;;12.81;70.53
25526;BME280;13424;48.424;11.258;2023-04-22T00:47:36;95084.47;;;12.86;70.17
25526;BME280;13424;48.424;11.258;2023-04-22T00:50:03;95086.38;;;12.96;70.28
25526;BME280;13424;48.424;11.258;2023-04-22T00:52:29;95084.50;;;12.97;70.42
25526;BME280;13424;48.424;11.258;2023-04-22T00:54:55;95075.66;;;12.91;70.55
25526;BME280;13424;48.424;11.258;2023-04-22T00:57:21;95081.00;;;12.81;71.00
25526;BME280;13424;48.424;11.258;2023-04-22T00:59:48;95071.09;;;12.92;70.78
25526;BME280;13424;48.424;11.258;2023-04-22T01:02:14;95068.16;;;12.83;71.17
25526;BME280;13424;48.424;11.258;2023-04-22T01:05:04;95073.03;;;13.22;69.87
25526;BME280;13424;48.424;11.258;2023-04-22T01:07:30;95078.09;;;13.33;69.47
25526;BME280;13424;48.424;11.258;2023-04-22T01:10:10;95070.31;;;13.11;70.19
25526;BME280;13424;48.424;11.258;2023-04-22T01:12:36;95070.03;;;13.08;70.39
25526;BME280;13424;48.424;11.258;2023-04-22T01:15:02;95067.09;;;13.09;70.80
25526;BME280;13424;48.424;11.258;2023-04-22T01:17:28;95069.22;;;13.18;70.33
25526;BME280;13424;48.424;11.258;2023-04-22T01:20:02;95070.56;;;13.10;70.53
25526;BME280;13424;48.424;11.258;2023-04-22T01:22:34;95066.28;;;12.94;70.50
25526;BME280;13424;48.424;11.258;2023-04-22T01:25:01;95062.75;;;12.63;71.32
25526;BME280;13424;48.424;11.258;2023-04-22T01:27:28;95066.47;;;12.41;72.35
25526;BME280;13424;48.424;11.258;2023-04-22T01:29:55;95061.81;;;12.11;74.02
25526;BME280;13424;48.424;11.258;2023-04-22T01:32:21;95065.44;;;12.57;71.98
25526;BME280;13424;48.424;11.258;2023-04-22T01:34:47;95073.22;;;12.79;71.05
25526;BME280;13424;48.424;11.258;2023-04-22T01:37:14;95073.22;;;12.79;70.71
25526;BME280;13424;48.424;11.258;2023-04-22T01:39:39;95074.31;;;12.73;71.20
25526;BME280;13424;48.424;11.258;2023-04-22T01:42:05;95073.47;;;12.63;71.15
25526;BME280;13424;48.424;11.258;2023-04-22T01:44:31;95079.59;;;12.53;71.45
25526;BME280;13424;48.424;11.258;2023-04-22T01:46:57;95086.03;;;12.57;71.64
25526;BME280;13424;48.424;11.258;2023-04-22T01:49:23;95080.94;;;12.61;71.15
25526;BME280;13424;48.424;11.258;2023-04-22T01:51:49;95087.94;;;12.72;70.43
25526;BME280;13424;48.424;11.258;2023-04-22T01:54:15;95084.72;;;12.75;71.03
25526;BME280;13424;48.424;11.258;2023-04-22T01:56:41;95085.47;;;12.55;72.07
25526;BME280;13424;48.424;11.258;2023-04-22T01:59:08;95085.78;;;12.58;72.01
25526;BME280;13424;48.424;11.258;2023-04-22T02:02:24;95084.19;;;12.68;70.93
25526;BME280;13424;48.424;11.258;2023-04-22T02:04:50;95079.69;;;12.89;70.72
25526;BME280;13424;48.424;11.258;2023-04-22T02:07:16;95083.41;;;13.03;70.24
25526;BME280;13424;48.424;11.258;2023-04-22T02:09:42;95079.38;;;12.70;71.06
25526;BME280;13424;48.424;11.258;2023-04-22T02:12:08;95081.28;;;12.90;70.56
25526;BME280;13424;48.424;11.258;2023-04-22T02:17:56;95073.00;;;13.42;69.16
25526;BME280;13424;48.424;11.258;2023-04-22T02:20:22;95075.38;;;13.08;69.88
25526;BME280;13424;48.424;11.258;2023-04-22T02:22:49;95074.56;;;13.02;69.95
25526;BME280;13424;48.424;11.258;2023-04-22T02:25:15;95079.94;;;12.97;70.19
25526;BME280;13424;48.424;11.258;2023-04-22T02:27:41;95078.56;;;12.79;70.74
25526;BME280;13424;48.424;11.258;2023-04-22T02:30:08;95072.97;;;12.76;70.49
25526;BME280;13424;48.424;11.258;2023-04-22T02:32:34;95076.22;;;13.29;68.71
25526;BME280;13424;48.424;11.258;2023-04-22T02:35:09;95072.97;;;13.17;68.94
25526;BME280;13424;48.424;11.258;2023-04-22T02:37:36;95070.03;;;12.82;70.00
25526;BME280;13424;48.424;11.258;2023-04-22T02:40:02;95065.75;;;12.92;70.05
25526;BME280;13424;48.424;11.258;2023-04-22T02:42:29;95068.66;;;12.60;71.27
25526;BME280;13424;48.424;11.258;2023-04-22T02:44:55;95066.19;;;12.48;71.14
25526;BME280;13424;48.424;11.258;2023-04-22T02:47:22;95070.81;;;12.68;70.85
25526;BME280;13424;48.424;11.258;2023-04-22T02:49:48;95072.41;;;12.79;70.36
25526;BME280;13424;48.424;11.258;2023-04-22T02:52:14;95070.31;;;13.11;69.49
25526;BME280;13424;48.424;11.258;2023-04-22T02:54:40;95060.91;;;12.73;70.16
25526;BME280;13424;48.424;11.258;2023-04-22T02:57:06;95065.94;;;12.44;70.92
25526;BME280;13424;48.424;11.258;2023-04-22T02:59:33;95066.47;;;12.41;70.72
25526;BME280;13424;48.424;11.258;2023-04-22T03:01:59;95067.50;;;12.25;71.00
25526;BME280;13424;48.424;11.258;2023-04-22T03:04:55;95072.56;;;12.32;70.82
25526;BME280;13424;48.424;11.258;2023-04-22T03:07:20;95070.25;;;11.83;72.42
25526;BME280;13424;48.424;11.258;2023-04-22T03:09:46;95074.97;;;11.75;73.17
25526;BME280;13424;48.424;11.258;2023-04-22T03:12:12;95078.53;;;11.81;72.97
25526;BME280;13424;48.424;11.258;2023-04-22T03:14:38;95080.44;;;11.49;74.08
25526;BME280;13424;48.424;11.258;2023-04-22T03:17:04;95082.75;;;11.77;73.20
25526;BME280;13424;48.424;11.258;2023-04-22T03:19:29;95078.63;;;12.01;71.93
25526;BME280;13424;48.424;11.258;2023-04-22T03:21:55;95077.28;;;12.04;71.48
25526;BME280;13424;48.424;11.258;2023-04-22T03:24:22;95080.50;;;12.01;71.23
25526;BME280;13424;48.424;11.258;2023-04-22T03:26:51;95070.53;;;11.86;70.97
25526;BME280;13424;48.424;11.258;2023-04-22T03:29:17;95070.53;;;11.86;71.10
25526;BME280;13424;48.424;11.258;2023-04-22T03:31:43;95070.78;;;11.85;70.67
25526;BME280;13424;48.424;11.258;2023-04-22T03:34:09;95068.41;;;11.46;73.57
25526;BME280;13424;48.424;11.258;2023-04-22T03:36:36;95076.69;;;11.50;73.50
25526;BME280;13424;48.424;11.258;2023-04-22T03:39:01;95073.59;;;11.63;73.21
25526;BME280;13424;48.424;11.258;2023-04-22T03:41:33;95072.78;;;11.67;72.77
25526;BME280;13424;48.424;11.258;2023-04-22T03:43:58;95074.38;;;12.11;71.48
25526;BME280;13424;48.424;11.258;2023-04-22T03:46:25;95079.22;;;12.19;71.16
25526;BME280;13424;48.424;11.258;2023-04-22T03:49:05;95073.22;;;11.91;71.44
25526;BME280;13424;48.424;11.258;2023-04-22T03:51:33;95076.09;;;11.05;73.73
25526;BME280;13424;48.424;11.258;2023-04-22T03:54:03;95077.34;;;10.93;73.30
25526;BME280;13424;48.424;11.258;2023-04-22T04:00:39;95070.56;;;10.80;72.53
25526;BME280;13424;48.424;11.258;2023-04-22T04:03:09;95074.44;;;10.94;72.46
25526;BME280;13424;48.424;11.258;2023-04-22T04:05:36;95064.53;;;10.62;74.73
25526;BME280;13424;48.424;11.258;2023-04-22T04:08:02;95066.75;;;10.71;75.42
25526;BME280;13424;48.424;11.258;2023-04-22T04:10:28;95068.16;;;11.10;73.25
25526;BME280;13424;48.424;11.258;2023-04-22T04:12:56;95064.03;;;11.30;72.87
25526;BME280;13424;48.424;11.258;2023-04-22T04:15:24;95064.88;;;11.03;73.85
25526;BME280;13424;48.424;11.258;2023-04-22T04:17:51;95062.91;;;10.88;75.23
25526;BME280;13424;48.424;11.258;2023-04-22T04:20:18;95065.19;;;11.07;75.37
25526;BME280;13424;48.424;11.258;2023-04-22T04:22:44;95055.34;;;11.12;75.70
25526;BME280;13424;48.424;11.258;2023-04-22T04:25:10;95062.97;;;11.31;75.06
25526;BME280;13424;48.424;11.258;2023-04-22T04:27:40;95063.75;;;11.73;73.25
25526;BME280;13424;48.424;11.258;2023-04-22T04:30:09;95064.13;;;11.87;72.38
25526;BME280;13424;48.424;11.258;2023-04-22T04:32:39;95060.81;;;11.70;73.28
25526;BME280;13424;48.424;11.258;2023-04-22T04:35:09;95067.75;;;11.71;72.92
25526;BME280;13424;48.424;11.258;2023-04-22T04:41:05;95065.63;;;11.73;72.89
25526;BME280;13424;48.424;11.258;2023-04-22T04:43:34;95063.44;;;12.12;72.18
25526;BME280;13424;48.424;11.258;2023-04-22T04:46:15;95069.44;;;12.50;71.09
25526;BME280;13424;48.424;11.258;2023-04-22T04:48:41;95064.03;;;12.29;71.26
25526;BME280;13424;48.424;11.258;2023-04-22T04:51:08;95065.34;;;11.69;73.15
25526;BME280;13424;48.424;11.258;2023-04-22T04:53:47;95067.88;;;11.91;72.88
25526;BME280;13424;48.424;11.258;2023-04-22T04:56:13;95059.03;;;11.81;73.18
25526;BME280;13424;48.424;11.258;2023-04-22T04:58:40;95065.44;;;11.85;73.29
25526;BME280;13424;48.424;11.258;2023-04-22T05:01:11;95075.56;;;12.40;72.01
25526;BME280;13424;48.424;11.258;2023-04-22T05:03:37;95074.84;;;12.85;70.40
25526;BME280;13424;48.424;11.258;2023-04-22T05:06:04;95072.16;;;12.80;70.41
25526;BME280;13424;48.424;11.258;2023-04-22T05:08:30;95064.34;;;12.64;71.10
25526;BME280;13424;48.424;11.258;2023-04-22T05:11:02;95071.34;;;12.85;71.23
25526;BME280;13424;48.424;11.258;2023-04-22T05:13:28;95077.81;;;12.99;70.43
25526;BME280;13424;48.424;11.258;2023-04-22T05:15:54;95082.63;;;13.18;69.39
25526;BME280;13424;48.424;11.258;2023-04-22T05:19:15;95084.50;;;13.17;69.85
25526;BME280;13424;48.424;11.258;2023-04-22T05:21:42;95087.47;;;13.46;69.38
25526;BME280;13424;48.424;11.258;2023-04-22T05:24:07;95090.69;;;13.28;69.68
25526;BME280;13424;48.424;11.258;2023-04-22T05:26:34;95086.13;;;13.13;70.40
25526;BME280;13424;48.424;11.258;2023-04-22T05:29:06;95097.13;;;13.32;70.12
25526;BME280;13424;48.424;11.258;2023-04-22T05:31:32;95095.22;;;13.12;70.81
25526;BME280;13424;48.424;11.258;2023-04-22T05:33:58;95093.88;;;13.04;70.94
25526;BME280;13424;48.424;11.258;2023-04-22T05:39:56;95099.75;;;13.78;69.18
25526;BME280;13424;48.424;11.258;2023-04-22T05:42:22;95102.47;;;13.52;69.81
25526;BME280;13424;48.424;11.258;2023-04-22T05:44:48;95109.34;;;13.99;68.42
25526;BME280;13424;48.424;11.258;2023-04-22T05:47:15;95117.44;;;13.58;70.12
25526;BME280;13424;48.424;11.258;2023-04-22T05:49:50;95116.31;;;13.95;68.72
25526;BME280;13424;48.424;11.258;2023-04-22T05:52:30;95117.69;;;13.72;69.18
25526;BME280;13424;48.424;11.258;2023-04-22T05:55:03;95130.03;;;13.73;69.27
25526;BME280;13424;48.424;11.258;2023-04-22T05:57:30;95131.03;;;14.08;68.77
25526;BME280;13424;48.424;11.258;2023-04-22T05:59:59;95130.25;;;14.07;68.89
25526;BME280;13424;48.424;11.258;2023-04-22T06:02:25;95130.16;;;14.38;67.59
25526;BME280;13424;48.424;11.258;2023-04-22T06:04:51;95126.44;;;14.13;68.18
25526;BME280;13424;48.424;11.258;2023-04-22T06:07:17;95128.59;;;14.16;68.67
25526;BME280;13424;48.424;11.258;2023-04-22T06:09:43;95124.84;;;14.82;67.64
25526;BME280;13424;48.424;11.258;2023-04-22T06:12:09;95129.47;;;14.71;67.23
25526;BME280;13424;48.424;11.258;2023-04-22T06:14:36;95131.81;;;14.83;67.49
25526;BME280;13424;48.424;11.258;2023-04-22T06:17:02;95134.41;;;14.98;66.72
25526;BME280;13424;48.424;11.258;2023-04-22T06:23:34;95135.13;;;15.14;65.77
25526;BME280;13424;48.424;11.258;2023-04-22T06:26:00;95137.69;;;15.34;64.38
25526;BME280;13424;48.424;11.258;2023-04-22T06:28:27;95130.84;;;15.47;64.56
25526;BME280;13424;48.424;11.258;2023-04-22T06:30:55;95128.34;;;15.61;63.92
25526;BME280;13424;48.424;11.258;2023-04-22T06:33:21;95135.41;;;15.47;64.08
25526;BME280;13424;48.424;11.258;2023-04-22T06:35:48;95124.78;;;15.95;63.92
25526;BME280;13424;48.424;11.258;2023-04-22T06:38:15;95123.91;;;16.04;64.21
25526;BME280;13424;48.424;11.258;2023-04-22T06:40:55;95133.31;;;16.31;63.44
25526;BME280;13424;48.424;11.258;2023-04-22T06:43:24;95132.19;;;16.08;65.02
25526;BME280;13424;48.424;11.258;2023-04-22T06:46:22;95134.53;;;16.62;64.30
25526;BME280;13424;48.424;11.258;2023-04-22T06:49:23;95140.91;;;16.47;64.49
25526;BME280;13424;48.424;11.258;2023-04-22T06:52:15;95137.75;;;16.64;64.60
25526;BME280;13424;48.424;11.258;2023-04-22T06:54:40;95144.22;;;16.87;64.43
25526;BME280;13424;48.424;11.258;2023-04-22T06:57:09;95138.97;;;16.77;63.32
25526;BME280;13424;48.424;11.258;2023-04-22T06:59:35;95134.63;;;17.00;63.88
25526;BME280;13424;48.424;11.258;2023-04-22T07:02:01;95134.00;;;17.22;61.27
25526;BME280;13424;48.424;11.258;2023-04-22T07:04:29;95139.13;;;17.23;62.57
25526;BME280;13424;48.424;11.258;2023-04-22T07:06:57;95133.44;;;17.25;62.92
25526;BME280;13424;48.424;11.258;2023-04-22T07:09:23;95136.44;;;17.05;61.83
25526;BME280;13424;48.424;11.258;2023-04-22T07:11:49;95136.78;;;16.98;62.24
25526;BME280;13424;48.424;11.258;2023-04-22T07:14:19;95136.19;;;16.82;62.83
25526;BME280;13424;48.424;11.258;2023-04-22T07:16:45;95133.16;;;16.65;62.98
25526;BME280;13424;48.424;11.258;2023-04-22T07:19:11;95127.19;;;17.11;64.50
25526;BME280;13424;48.424;11.258;2023-04-22T07:21:37;95131.63;;;16.83;62.79
25526;BME280;13424;48.424;11.258;2023-04-22T07:24:03;95143.28;;;17.16;62.84
25526;BME280;13424;48.424;11.258;2023-04-22T07:26:28;95132.56;;;17.29;65.29
25526;BME280;13424;48.424;11.258;2023-04-22T07:28:56;95136.59;;;17.97;61.86
25526;BME280;13424;48.424;11.258;2023-04-22T07:31:22;95124.16;;;18.29;61.10
25526;BME280;13424;48.424;11.258;2023-04-22T07:34:41;95119.97;;;17.76;59.76
25526;BME280;13424;48.424;11.258;2023-04-22T07:37:07;95113.19;;;17.46;61.60
25526;BME280;13424;48.424;11.258;2023-04-22T07:39:34;95119.13;;;17.95;60.36
25526;BME280;13424;48.424;11.258;2023-04-22T07:41:59;95121.97;;;17.71;59.29
25526;BME280;13424;48.424;11.258;2023-04-22T07:44:26;95125.28;;;18.41;58.75
25526;BME280;13424;48.424;11.258;2023-04-22T07:46:52;95124.25;;;18.24;56.25
25526;BME280;13424;48.424;11.258;2023-04-22T07:49:18;95121.25;;;18.39;56.39
25526;BME280;13424;48.424;11.258;2023-04-22T07:51:44;95121.47;;;18.29;57.14
25526;BME280;13424;48.424;11.258;2023-04-22T07:54:10;95125.09;;;18.65;55.27
25526;BME280;13424;48.424;11.258;2023-04-22T07:56:36;95128.03;;;19.05;56.58
25526;BME280;13424;48.424;11.258;2023-04-22T07:59:02;95120.25;;;18.90;55.34
25526;BME280;13424;48.424;11.258;2023-04-22T08:01:28;95129.22;;;18.99;57.21
25526;BME280;13424;48.424;11.258;2023-04-22T08:04:00;95134.50;;;19.40;57.74
25526;BME280;13424;48.424;11.258;2023-04-22T08:06:26;95132.56;;;19.55;56.00
25526;BME280;13424;48.424;11.258;2023-04-22T08:08:52;95137.59;;;19.47;55.46
25526;BME280;13424;48.424;11.258;2023-04-22T08:11:18;95134.19;;;19.42;58.19
25526;BME280;13424;48.424;11.258;2023-04-22T08:13:44;95135.19;;;19.23;57.40
25526;BME280;13424;48.424;11.258;2023-04-22T08:16:10;95131.56;;;19.95;53.26
25526;BME280;13424;48.424;11.258;2023-04-22T08:18:36;95120.88;;;19.59;53.62
25526;BME280;13424;48.424;11.258;2023-04-22T08:21:03;95130.47;;;19.96;53.95
25526;BME280;13424;48.424;11.258;2023-04-22T08:23:29;95126.25;;;19.82;53.97
25526;BME280;13424;48.424;11.258;2023-04-22T08:25:55;95125.94;;;19.83;54.17
25526;BME280;13424;48.424;11.258;2023-04-22T08:28:20;95126.97;;;19.96;54.78
25526;BME280;13424;48.424;11.258;2023-04-22T08:30:46;95128.56;;;19.97;53.06
25526;BME280;13424;48.424;11.258;2023-04-22T08:33:12;95119.19;;;19.72;54.15
25526;BME280;13424;48.424;11.258;2023-04-22T08:35:39;95128.81;;;19.87;56.28
25526;BME280;13424;48.424;11.258;2023-04-22T08:38:04;95134.22;;;19.87;52.37
25526;BME280;13424;48.424;11.258;2023-04-22T08:40:30;95135.81;;;20.10;53.45
25526;BME280;13424;48.424;11.258;2023-04-22T08:42:56;95134.41;;;19.90;54.48
25526;BME280;13424;48.424;11.258;2023-04-22T08:45:22;95137.81;;;20.35;53.38
25526;BME280;13424;48.424;11.258;2023-04-22T08:47:48;95131.25;;;19.97;54.99
25526;BME280;13424;48.424;11.258;2023-04-22T08:50:15;95126.88;;;20.41;54.46
25526;BME280;13424;48.424;11.258;2023-04-22T08:52:43;95126.22;;;20.04;55.68
25526;BME280;13424;48.424;11.258;2023-04-22T08:55:09;95131.06;;;20.47;53.24
25526;BME280;13424;48.424;11.258;2023-04-22T08:57:40;95125.53;;;20.69;53.20
25526;BME280;13424;48.424;11.258;2023-04-22T09:00:07;95128.88;;;20.66;53.34
25526;BME280;13424;48.424;11.258;2023-04-22T09:02:34;95133.28;;;21.02;52.87
25526;BME280;13424;48.424;11.258;2023-04-22T09:05:02;95127.88;;;21.02;52.56
25526;BME280;13424;48.424;11.258;2023-04-22T09:07:31;95121.59;;;20.84;52.19
25526;BME280;13424;48.424;11.258;2023-04-22T09:09:57;95121.59;;;20.92;53.38
25526;BME280;13424;48.424;11.258;2023-04-22T09:12:24;95119.03;;;20.70;51.22
25526;BME280;13424;48.424;11.258;2023-04-22T09:14:51;95120.53;;;20.94;54.22
25526;BME280;13424;48.424;11.258;2023-04-22T09:17:28;95123.75;;;21.30;52.66
25526;BME280;13424;48.424;11.258;2023-04-22T09:19:58;95119.13;;;21.48;50.37
25526;BME280;13424;48.424;11.258;2023-04-22T09:25:24;95117.38;;;21.61;52.47
25526;BME280;13424;48.424;11.258;2023-04-22T09:27:52;95117.31;;;21.95;50.49
25526;BME280;13424;48.424;11.258;2023-04-22T09:30:27;95116.41;;;21.83;49.51
25526;BME280;13424;48.424;11.258;2023-04-22T09:33:04;95120.50;;;22.15;51.04
25526;BME280;13424;48.424;11.258;2023-04-22T09:39:06;95123.69;;;21.99;51.04
25526;BME280;13424;48.424;11.258;2023-04-22T09:41:37;95118.00;;;21.75;50.20
25526;BME280;13424;48.424;11.258;2023-04-22T09:44:08;95120.34;;;22.20;50.39
25526;BME280;13424;48.424;11.258;2023-04-22T09:46:34;95114.38;;;23.24;48.68
25526;BME280;13424;48.424;11.258;2023-04-22T09:49:15;95110.53;;;22.36;50.28
25526;BME280;13424;48.424;11.258;2023-04-22T09:51:41;95111.44;;;22.40;51.04
25526;BME280;13424;48.424;11.258;2023-04-22T09:54:07;95110.47;;;21.98;54.34
25526;BME280;13424;48.424;11.258;2023-04-22T09:56:51;95111.50;;;22.99;49.11
25526;BME280;13424;48.424;11.258;2023-04-22T09:59:26;95106.97;;;22.44;48.21
25526;BME280;13424;48.424;11.258;2023-04-22T10:01:58;95108.59;;;22.66;49.01
25526;BME280;13424;48.424;11.258;2023-04-22T10:08:31;95101.66;;;22.48;47.35
25526;BME280;13424;48.424;11.258;2023-04-22T10:10:57;95098.41;;;22.25;48.56
25526;BME280;13424;48.424;11.258;2023-04-22T10:13:24;95099.25;;;22.17;49.34
25526;BME280;13424;48.424;11.258;2023-04-22T10:15:51;95098.16;;;22.47;48.87
25526;BME280;13424;48.424;11.258;2023-04-22T10:18:23;95100.03;;;22.94;49.45
25526;BME280;13424;48.424;11.258;2023-04-22T10:20:52;95096.22;;;22.86;49.80
25526;BME280;13424;48.424;11.258;2023-04-22T10:23:21;95091.19;;;22.38;49.35
25526;BME280;13424;48.424;11.258;2023-04-22T10:25:54;95089.97;;;22.56;52.64
25526;BME280;13424;48.424;11.258;2023-04-22T10:28:23;95095.19;;;22.70;48.94
25526;BME280;13424;48.424;11.258;2023-04-22T10:30:52;95093.13;;;23.17;50.04
25526;BME280;13424;48.424;11.258;2023-04-22T10:36:16;95084.56;;;23.06;48.87
25526;BME280;13424;48.424;11.258;2023-04-22T10:41:34;95084.91;;;23.26;47.79
25526;BME280;13424;48.424;11.258;2023-04-22T10:44:09;95078.16;;;23.32;47.75
25526;BME280;13424;48.424;11.258;2023-04-22T10:49:17;95070.66;;;23.83;45.46
25526;BME280;13424;48.424;11.258;2023-04-22T10:51:53;95059.00;;;23.61;45.70
25526;BME280;13424;48.424;11.258;2023-04-22T10:57:12;95069.84;;;23.70;46.43
25526;BME280;13424;48.424;11.258;2023-04-22T10:59:46;95068.34;;;23.73;45.97
25526;BME280;13424;48.424;11.258;2023-04-22T11:02:16;95077.13;;;23.57;46.39
25526;BME280;13424;48.424;11.258;2023-04-22T11:04:42;95074.41;;;23.78;46.84
25526;BME280;13424;48.424;11.258;2023-04-22T11:15:16;95076.78;;;23.92;47.10
25526;BME280;13424;48.424;11.258;2023-04-22T11:17:45;95070.84;;;23.78;49.39
25526;BME280;13424;48.424;11.258;2023-04-22T11:20:13;95071.56;;;24.57;45.63
25526;BME280;13424;48.424;11.258;2023-04-22T11:22:52;95073.72;;;23.93;42.86
25526;BME280;13424;48.424;11.258;2023-04-22T11:25:19;95083.28;;;24.69;46.39
25526;BME280;13424;48.424;11.258;2023-04-22T11:27:45;95075.22;;;23.91;48.44
25526;BME280;13424;48.424;11.258;2023-04-22T11:30:20;95075.09;;;24.69;45.09
25526;BME280;13424;48.424;11.258;2023-04-22T11:32:49;95074.88;;;24.50;42.48
25526;BME280;13424;48.424;11.258;2023-04-22T11:35:19;95077.59;;;24.62;42.41
25526;BME280;13424;48.424;11.258;2023-04-22T11:40:21;95068.25;;;25.12;46.98
25526;BME280;13424;48.424;11.258;2023-04-22T11:42:47;95064.41;;;24.64;45.44
25526;BME280;13424;48.424;11.258;2023-04-22T11:49:19;95065.88;;;24.98;42.37
25526;BME280;13424;48.424;11.258;2023-04-22T11:51:55;95069.56;;;25.30;39.98
25526;BME280;13424;48.424;11.258;2023-04-22T11:54:37;95065.97;;;25.14;42.47
25526;BME280;13424;48.424;11.258;2023-04-22T11:57:07;95057.19;;;26.05;44.81
25526;BME280;13424;48.424;11.258;2023-04-22T11:59:40;95062.69;;;25.77;40.08
25526;BME280;13424;48.424;11.258;2023-04-22T12:02:06;95051.78;;;24.84;44.73
25526;BME280;13424;48.424;11.258;2023-04-22T12:04:39;95053.69;;;25.20;42.32
25526;BME280;13424;48.424;11.258;2023-04-22T12:07:05;95051.78;;;25.09;42.21
25526;BME280;13424;48.424;11.258;2023-04-22T12:09:32;95058.88;;;25.25;40.60
25526;BME280;13424;48.424;11.258;2023-04-22T12:15:41;95038.75;;;24.65;43.64
25526;BME280;13424;48.424;11.258;2023-04-22T12:18:08;95043.47;;;24.07;45.02
25526;BME280;13424;48.424;11.258;2023-04-22T12:20:35;95036.91;;;24.82;43.30
25526;BME280;13424;48.424;11.258;2023-04-22T12:23:03;95047.00;;;25.05;43.96
25526;BME280;13424;48.424;11.258;2023-04-22T12:25:28;95039.88;;;24.76;42.67
25526;BME280;13424;48.424;11.258;2023-04-22T12:27:55;95042.88;;;25.52;43.51
25526;BME280;13424;48.424;11.258;2023-04-22T12:30:22;95037.13;;;24.76;45.80
25526;BME280;13424;48.424;11.258;2023-04-22T12:32:49;95040.97;;;24.88;41.52
25526;BME280;13424;48.424;11.258;2023-04-22T12:35:15;95043.72;;;25.12;42.15
25526;BME280;13424;48.424;11.258;2023-04-22T12:37:42;95042.53;;;25.53;40.52
25526;BME280;13424;48.424;11.258;2023-04-22T12:40:08;95037.66;;;25.47;39.63
25526;BME280;13424;48.424;11.258;2023-04-22T12:42:34;95036.41;;;25.16;40.46
25526;BME280;13424;48.424;11.258;2023-04-22T12:45:01;95023.59;;;24.80;44.44
25526;BME280;13424;48.424;11.258;2023-04-22T12:47:27;95030.31;;;24.70;43.70
25526;BME280;13424;48.424;11.258;2023-04-22T12:49:52;95024.97;;;24.86;42.20
25526;BME280;13424;48.424;11.258;2023-04-22T12:52:24;95017.06;;;25.49;40.74
25526;BME280;13424;48.424;11.258;2023-04-22T12:54:50;95024.53;;;25.37;42.05
25526;BME280;13424;48.424;11.258;2023-04-22T12:57:16;95015.31;;;24.89;42.34
25526;BME280;13424;48.424;11.258;2023-04-22T12:59:42;95025.56;;;25.20;42.85
25526;BME280;13424;48.424;11.258;2023-04-22T13:02:09;95018.75;;;25.26;40.85
25526;BME280;13424;48.424;11.258;2023-04-22T13:04:35;95014.69;;;25.48;39.62
25526;BME280;13424;48.424;11.258;2023-04-22T13:07:03;95013.25;;;24.98;40.89
25526;BME280;13424;48.424;11.258;2023-04-22T13:09:29;95010.28;;;25.03;40.60
25526;BME280;13424;48.424;11.258;2023-04-22T13:11:55;95002.50;;;25.73;43.96
25526;BME280;13424;48.424;11.258;2023-04-22T13:14:21;94999.81;;;25.45;41.64
25526;BME280;13424;48.424;11.258;2023-04-22T13:16:47;95002.47;;;25.85;39.12
25526;BME280;13424;48.424;11.258;2023-04-22T13:19:13;94996.72;;;25.47;41.51
25526;BME280;13424;48.424;11.258;2023-04-22T13:21:38;94993.25;;;24.94;41.97
25526;BME280;13424;48.424;11.258;2023-04-22T13:24:04;94983.31;;;24.73;40.89
25526;BME280;13424;48.424;11.258;2023-04-22T13:26:30;94981.06;;;25.03;42.21
25526;BME280;13424;48.424;11.258;2023-04-22T13:28:56;94986.03;;;24.73;42.03
25526;BME280;13424;48.424;11.258;2023-04-22T13:31:22;94981.03;;;24.75;41.51
25526;BME280;13424;48.424;11.258;2023-04-22T13:33:47;94980.69;;;24.77;43.00
25526;BME280;13424;48.424;11.258;2023-04-22T13:36:13;94981.84;;;25.16;41.37
25526;BME280;13424;48.424;11.258;2023-04-22T13:38:39;94980.53;;;24.86;41.60
25526;BME280;13424;48.424;11.258;2023-04-22T13:41:05;94977.94;;;24.89;42.97
25526;BME280;13424;48.424;11.258;2023-04-22T13:43:31;94974.63;;;25.52;40.02
25526;BME280;13424;48.424;11.258;2023-04-22T13:45:56;94968.22;;;25.04;42.29
25526;BME280;13424;48.424;11.258;2023-04-22T13:48:22;94974.94;;;25.34;41.55
25526;BME280;13424;48.424;11.258;2023-04-22T13:54:54;94971.09;;;26.11;40.54
25526;BME280;13424;48.424;11.258;2023-04-22T13:57:21;94966.06;;;25.38;41.33
25526;BME280;13424;48.424;11.258;2023-04-22T13:59:49;94965.19;;;26.25;39.92